Time;durP1;ratioP1;P1;durP2;ratioP2;P2;SDS_P1;SDS_P2;PMS_P1;PMS_P2;Temp;Humidity;BMP_temperature;BMP_pressure;BME280_temperature;BME280_humidity;BME280_pressure;Samples;Min_cycle;Max_cycle;Signal;HPM_P1;HPM_P2
2022/11/04 00:00:30;;;;;;;11.83;5.90;;;10.50;99.90;;;;;;5076813;28;20566;-67
2022/11/04 00:02:58;;;;;;;7.27;4.87;;;10.50;99.90;;;;;;5088983;28;20245;-67
2022/11/04 00:05:25;;;;;;;8.43;4.50;;;10.60;99.90;;;;;;5089189;28;20239;-68
2022/11/04 00:13:20;;;;;;;7.30;4.87;;;10.50;99.90;;;;;;5070322;28;20210;-67
2022/11/04 00:18:35;;;;;;;7.07;4.80;;;10.50;99.90;;;;;;5068965;28;20292;-66
2022/11/04 00:29:14;;;;;;;6.27;5.27;;;10.50;99.90;;;;;;5072630;28;20246;-68
2022/11/04 00:34:26;;;;;;;6.07;5.30;;;10.50;99.90;;;;;;5068477;28;20656;-66
2022/11/04 00:36:53;;;;;;;8.23;5.17;;;10.40;99.90;;;;;;5068496;28;20215;-66
2022/11/04 00:39:20;;;;;;;6.00;4.83;;;10.40;99.90;;;;;;5068853;28;20210;-66
2022/11/04 00:41:47;;;;;;;7.77;5.30;;;10.40;99.90;;;;;;5068052;28;20207;-67
2022/11/04 00:44:13;;;;;;;6.53;5.23;;;10.40;99.90;;;;;;5068684;28;20210;-66
2022/11/04 00:46:40;;;;;;;8.13;5.27;;;10.40;99.90;;;;;;5069254;28;20219;-67
2022/11/04 00:49:07;;;;;;;6.47;5.37;;;10.40;99.90;;;;;;5068253;28;20203;-67
2022/11/04 00:51:35;;;;;;;8.07;5.40;;;10.40;99.90;;;;;;5068334;28;21119;-66
2022/11/04 00:54:02;;;;;;;6.03;5.40;;;10.40;99.90;;;;;;5068544;28;20584;-66
2022/11/04 00:56:28;;;;;;;6.07;5.23;;;10.40;99.90;;;;;;5070645;28;20593;-66
2022/11/04 00:58:55;;;;;;;8.20;5.13;;;10.30;99.90;;;;;;5067845;28;20211;-66
2022/11/04 01:01:22;;;;;;;8.20;5.60;;;10.30;99.90;;;;;;5068287;28;20204;-66
2022/11/04 01:03:50;;;;;;;8.90;5.73;;;10.30;99.90;;;;;;5067483;28;20341;-66
2022/11/04 01:06:18;;;;;;;8.47;5.67;;;10.30;99.90;;;;;;5068163;28;20238;-66
2022/11/04 01:08:46;;;;;;;7.77;5.37;;;10.30;99.90;;;;;;5068157;28;20207;-66
2022/11/04 01:11:14;;;;;;;8.60;5.13;;;10.20;99.90;;;;;;5067717;28;20211;-66
2022/11/04 01:13:41;;;;;;;7.80;5.90;;;10.20;99.90;;;;;;5067727;28;20761;-66
2022/11/04 01:16:10;;;;;;;6.10;5.50;;;10.20;99.90;;;;;;5067824;28;20214;-66
2022/11/04 01:18:37;;;;;;;8.83;6.03;;;10.10;99.90;;;;;;5067585;28;20211;-66
2022/11/04 01:21:05;;;;;;;8.30;5.87;;;10.20;99.90;;;;;;5067440;28;20592;-66
2022/11/04 01:23:32;;;;;;;9.90;5.57;;;10.20;99.90;;;;;;5067853;28;20203;-66
2022/11/04 01:26:00;;;;;;;7.77;5.90;;;10.20;99.90;;;;;;5067855;28;20238;-66
2022/11/04 01:28:27;;;;;;;9.57;5.77;;;10.20;99.90;;;;;;5067618;28;20202;-67
2022/11/04 01:30:53;;;;;;;7.23;5.77;;;10.20;99.90;;;;;;5077662;28;20199;-66
2022/11/04 01:33:20;;;;;;;9.67;6.00;;;10.20;99.90;;;;;;5073157;28;20204;-66
2022/11/04 01:35:47;;;;;;;8.57;5.77;;;10.20;99.90;;;;;;5066744;28;20576;-66
2022/11/04 01:38:13;;;;;;;6.93;6.00;;;10.20;99.90;;;;;;5067484;28;20216;-67
2022/11/04 01:40:41;;;;;;;7.37;5.90;;;10.20;99.90;;;;;;5067513;28;20200;-66
2022/11/04 01:43:14;;;;;;;11.60;5.60;;;10.20;99.90;;;;;;5067339;28;20657;-66
2022/11/04 01:45:42;;;;;;;6.97;6.27;;;10.20;99.90;;;;;;5067326;28;20215;-66
2022/11/04 01:48:15;;;;;;;8.57;5.50;;;10.20;99.90;;;;;;5067579;28;20211;-66
2022/11/04 01:50:42;;;;;;;8.47;5.53;;;10.20;99.90;;;;;;5067224;28;20227;-66
2022/11/04 01:53:13;;;;;;;7.17;5.80;;;10.20;99.90;;;;;;5067515;28;20204;-66
2022/11/04 01:55:44;;;;;;;8.10;6.03;;;10.20;99.90;;;;;;5067119;28;20933;-66
2022/11/04 01:58:17;;;;;;;8.53;5.50;;;10.20;99.90;;;;;;5067158;28;20196;-66
2022/11/04 02:00:44;;;;;;;7.63;5.50;;;10.10;99.90;;;;;;5067216;28;20196;-66
2022/11/04 02:03:16;;;;;;;8.40;6.00;;;10.10;99.90;;;;;;5066763;28;20981;-66
2022/11/04 02:05:44;;;;;;;7.70;5.80;;;10.10;99.90;;;;;;5067022;28;20250;-66
2022/11/04 02:08:12;;;;;;;8.37;5.93;;;10.10;99.90;;;;;;5067253;28;20216;-66
2022/11/04 02:10:41;;;;;;;7.43;6.60;;;10.10;99.90;;;;;;5067204;28;20215;-66
2022/11/04 02:13:07;;;;;;;7.23;6.30;;;10.10;99.90;;;;;;5067274;28;20207;-65
2022/11/04 02:15:43;;;;;;;9.00;6.37;;;10.10;99.90;;;;;;5066858;28;20218;-65
2022/11/04 02:18:24;;;;;;;6.90;6.17;;;10.10;99.90;;;;;;5079514;28;20265;-66
2022/11/04 02:21:18;;;;;;;7.13;5.80;;;10.10;99.90;;;;;;5081867;28;20211;-66
2022/11/04 02:24:04;;;;;;;6.60;5.90;;;10.10;99.90;;;;;;5067222;28;20195;-65
2022/11/04 02:27:04;;;;;;;6.73;6.03;;;10.10;99.90;;;;;;5075231;28;20222;-66
2022/11/04 02:29:58;;;;;;;8.53;6.37;;;10.10;99.90;;;;;;5087133;28;20544;-66
2022/11/04 02:32:37;;;;;;;10.33;6.53;;;10.10;99.90;;;;;;5081081;28;20187;-67
2022/11/04 02:35:12;;;;;;;9.73;6.00;;;10.10;99.90;;;;;;5066467;28;20799;-67
2022/11/04 02:37:47;;;;;;;10.13;6.40;;;10.10;99.90;;;;;;5066832;28;20191;-67
2022/11/04 02:40:25;;;;;;;9.70;6.13;;;10.10;99.90;;;;;;5066888;28;20654;-66
2022/11/04 02:42:58;;;;;;;12.47;6.03;;;10.10;99.90;;;;;;5066764;28;20202;-66
2022/11/04 02:45:32;;;;;;;6.57;5.80;;;10.10;99.90;;;;;;5066588;28;20741;-66
2022/11/04 02:48:04;;;;;;;7.73;6.23;;;10.10;99.90;;;;;;5066664;28;20197;-66
2022/11/04 02:50:34;;;;;;;7.27;5.80;;;10.10;99.90;;;;;;5066713;28;20228;-66
2022/11/04 02:53:08;;;;;;;9.43;6.30;;;10.10;99.90;;;;;;5070000;28;20187;-67
2022/11/04 02:55:40;;;;;;;7.77;5.93;;;10.10;99.90;;;;;;5086553;28;20202;-67
2022/11/04 02:58:12;;;;;;;8.23;6.57;;;10.10;99.90;;;;;;5066763;28;20642;-67
2022/11/04 03:00:43;;;;;;;7.13;6.37;;;10.10;99.90;;;;;;5066759;28;20219;-67
2022/11/04 03:03:14;;;;;;;8.53;6.20;;;10.10;99.90;;;;;;5077928;28;20238;-67
2022/11/04 03:05:44;;;;;;;7.93;6.53;;;10.10;99.90;;;;;;5086626;28;20564;-67
2022/11/04 03:08:16;;;;;;;7.03;6.10;;;10.10;99.90;;;;;;5086615;28;20658;-67
2022/11/04 03:10:46;;;;;;;8.77;6.67;;;10.10;99.90;;;;;;5087828;28;20206;-67
2022/11/04 03:13:16;;;;;;;8.00;6.30;;;10.10;99.90;;;;;;5074519;28;20725;-67
2022/11/04 03:15:49;;;;;;;7.90;5.87;;;10.10;99.90;;;;;;5070198;28;20206;-67
2022/11/04 03:18:22;;;;;;;9.33;6.40;;;10.10;99.90;;;;;;5071277;28;20555;-66
2022/11/04 03:20:51;;;;;;;8.83;6.17;;;10.10;99.90;;;;;;5070701;28;20198;-67
2022/11/04 03:23:18;;;;;;;12.03;6.60;;;10.10;99.90;;;;;;5090761;28;20567;-67
2022/11/04 03:25:47;;;;;;;6.70;6.10;;;10.10;99.90;;;;;;5088510;28;20656;-67
2022/11/04 03:28:24;;;;;;;8.20;6.20;;;10.10;99.90;;;;;;5069959;28;20200;-67
2022/11/04 03:30:58;;;;;;;9.60;5.97;;;10.10;99.90;;;;;;5070052;28;20202;-67
2022/11/04 03:33:29;;;;;;;7.97;6.20;;;10.10;99.90;;;;;;5070209;28;20203;-66
2022/11/04 03:35:57;;;;;;;6.87;5.77;;;10.10;99.90;;;;;;5071329;28;20196;-67
2022/11/04 03:38:24;;;;;;;8.67;6.50;;;10.10;99.90;;;;;;5090398;28;20296;-67
2022/11/04 03:40:51;;;;;;;10.57;6.33;;;10.10;99.90;;;;;;5090190;28;20595;-67
2022/11/04 03:43:22;;;;;;;8.63;6.20;;;10.10;99.90;;;;;;5090209;28;20203;-67
2022/11/04 03:45:51;;;;;;;9.80;6.40;;;10.10;99.90;;;;;;5089509;28;20787;-67
2022/11/04 03:48:18;;;;;;;9.97;6.13;;;10.10;99.90;;;;;;5089806;28;20199;-67
2022/11/04 03:50:47;;;;;;;10.27;6.30;;;10.20;99.90;;;;;;5089590;28;20219;-67
2022/11/04 03:53:17;;;;;;;9.50;6.10;;;10.10;99.90;;;;;;5069660;28;20253;-66
2022/11/04 03:56:01;;;;;;;9.03;6.40;;;10.20;99.90;;;;;;5070725;28;20661;-66
2022/11/04 03:58:37;;;;;;;6.83;6.00;;;10.20;99.90;;;;;;5089503;28;20191;-66
2022/11/04 04:01:21;;;;;;;6.63;5.97;;;10.20;99.90;;;;;;5089850;28;20190;-66
2022/11/04 04:03:55;;;;;;;7.17;6.37;;;10.20;99.90;;;;;;5088742;28;20245;-66
2022/11/04 04:06:28;;;;;;;7.03;5.77;;;10.20;99.90;;;;;;5089069;28;20220;-67
2022/11/04 04:08:58;;;;;;;6.97;6.30;;;10.20;99.90;;;;;;5078506;28;20211;-67
2022/11/04 04:11:32;;;;;;;8.33;6.27;;;10.20;99.90;;;;;;5069034;28;20203;-67
2022/11/04 04:14:05;;;;;;;9.70;6.77;;;10.30;99.90;;;;;;5068878;28;20226;-67
2022/11/04 04:16:37;;;;;;;8.47;6.40;;;10.30;99.90;;;;;;5088642;28;20191;-67
2022/11/04 04:19:08;;;;;;;9.50;6.70;;;10.30;99.90;;;;;;5089063;28;20198;-67
2022/11/04 04:21:40;;;;;;;7.43;6.73;;;10.30;99.90;;;;;;5083852;28;20577;-67
2022/11/04 04:29:40;;;;;;;7.20;6.50;;;10.30;99.90;;;;;;5068504;28;20195;-67
2022/11/04 04:32:09;;;;;;;9.50;6.80;;;10.30;99.90;;;;;;5068620;28;20207;-67
2022/11/04 04:34:37;;;;;;;8.67;6.47;;;10.30;99.90;;;;;;5068567;28;20218;-67
2022/11/04 04:37:07;;;;;;;7.20;6.50;;;10.30;99.90;;;;;;5078470;28;20191;-67
2022/11/04 04:45:10;;;;;;;9.90;6.40;;;10.30;99.90;;;;;;5088693;28;20194;-67
2022/11/04 04:47:43;;;;;;;7.13;6.43;;;10.30;99.90;;;;;;5088493;28;20703;-67
2022/11/04 04:50:12;;;;;;;6.57;5.97;;;10.30;99.90;;;;;;5088062;28;20223;-67
2022/11/04 04:52:42;;;;;;;9.93;6.37;;;10.30;99.90;;;;;;5068243;28;20200;-67
2022/11/04 04:55:10;;;;;;;8.57;6.83;;;10.30;99.90;;;;;;5068212;28;20685;-67
2022/11/04 04:57:37;;;;;;;11.30;6.47;;;10.30;99.90;;;;;;5068391;28;20218;-67
2022/11/04 05:00:06;;;;;;;8.57;6.70;;;10.30;99.90;;;;;;5068050;28;20688;-67
2022/11/04 05:02:32;;;;;;;10.80;7.27;;;10.30;99.90;;;;;;5085013;28;20311;-67
2022/11/04 05:05:01;;;;;;;8.70;6.97;;;10.40;99.90;;;;;;5067857;28;20203;-67
2022/11/04 05:07:28;;;;;;;7.07;6.43;;;10.40;99.90;;;;;;5078068;28;20317;-67
2022/11/04 05:09:54;;;;;;;7.77;6.67;;;10.40;99.90;;;;;;5088345;28;20207;-66
2022/11/04 05:12:21;;;;;;;11.37;7.50;;;10.40;99.90;;;;;;5088251;28;20206;-67
2022/11/04 05:14:48;;;;;;;9.80;7.37;;;10.40;99.90;;;;;;5088046;28;20217;-66
2022/11/04 05:17:15;;;;;;;8.80;6.87;;;10.50;99.90;;;;;;5087824;28;20700;-67
2022/11/04 05:19:42;;;;;;;10.87;6.97;;;10.50;99.90;;;;;;5087981;28;20203;-67
2022/11/04 05:22:10;;;;;;;8.43;7.63;;;10.50;99.90;;;;;;5071796;28;20219;-67
2022/11/04 05:24:37;;;;;;;9.17;7.60;;;10.50;99.90;;;;;;5067739;28;20244;-67
2022/11/04 05:27:03;;;;;;;8.07;7.20;;;10.50;99.90;;;;;;5067514;28;20231;-67
2022/11/04 05:29:30;;;;;;;8.90;6.40;;;10.50;99.90;;;;;;5067637;28;20210;-67
2022/11/04 05:31:57;;;;;;;7.47;6.77;;;10.50;99.90;;;;;;5067539;28;20210;-67
2022/11/04 05:34:24;;;;;;;9.70;6.93;;;10.50;99.90;;;;;;5067454;28;20215;-67
2022/11/04 05:36:50;;;;;;;10.73;7.60;;;10.50;99.90;;;;;;5067440;28;20705;-67
2022/11/04 05:39:19;;;;;;;8.97;7.47;;;10.50;99.90;;;;;;5067612;28;20218;-67
2022/11/04 05:41:45;;;;;;;10.30;6.83;;;10.50;99.90;;;;;;5082584;28;20222;-67
2022/11/04 05:44:12;;;;;;;9.37;7.87;;;10.50;99.90;;;;;;5087961;28;20574;-67
2022/11/04 05:46:39;;;;;;;10.43;8.50;;;10.50;99.90;;;;;;5085814;28;20219;-67
2022/11/04 05:49:05;;;;;;;9.40;8.07;;;10.60;99.90;;;;;;5087761;28;20206;-67
2022/11/04 05:51:32;;;;;;;11.37;8.00;;;10.60;99.90;;;;;;5087646;28;20222;-67
2022/11/04 05:54:00;;;;;;;11.37;8.63;;;10.50;99.90;;;;;;5087699;28;20218;-66
2022/11/04 05:56:28;;;;;;;10.20;8.33;;;10.60;99.90;;;;;;5087802;28;20210;-67
2022/11/04 05:58:55;;;;;;;11.93;8.23;;;10.50;99.90;;;;;;5087505;28;20211;-67
2022/11/04 06:01:28;;;;;;;11.33;8.27;;;10.50;99.90;;;;;;5077110;28;20218;-67
2022/11/04 06:03:55;;;;;;;9.00;8.10;;;10.50;99.90;;;;;;5066958;28;20253;-66
2022/11/04 06:06:23;;;;;;;11.50;8.40;;;10.50;99.90;;;;;;5067685;28;20214;-66
2022/11/04 06:08:54;;;;;;;9.30;8.33;;;10.50;99.90;;;;;;5067311;28;20207;-67
2022/11/04 06:11:22;;;;;;;9.80;8.13;;;10.50;99.90;;;;;;5067519;28;20195;-67
2022/11/04 06:13:51;;;;;;;10.60;8.70;;;10.50;99.90;;;;;;5067647;28;20225;-66
2022/11/04 06:16:18;;;;;;;9.63;8.33;;;10.50;99.90;;;;;;5067253;28;20700;-66
2022/11/04 06:18:44;;;;;;;10.23;7.97;;;10.50;99.90;;;;;;5067173;28;20214;-66
2022/11/04 06:21:23;;;;;;;12.63;8.70;;;10.50;99.90;;;;;;5067460;28;20214;-66
2022/11/04 06:23:50;;;;;;;11.63;8.93;;;10.50;99.90;;;;;;5067298;28;20279;-66
2022/11/04 06:26:17;;;;;;;9.37;8.40;;;10.50;99.90;;;;;;5066773;28;20219;-67
2022/11/04 06:28:44;;;;;;;8.80;7.87;;;10.60;99.90;;;;;;5066626;28;20674;-67
2022/11/04 06:31:13;;;;;;;11.30;8.97;;;10.50;99.90;;;;;;5067332;28;20215;-67
2022/11/04 06:33:41;;;;;;;13.57;8.83;;;10.50;99.90;;;;;;5066697;28;20659;-66
2022/11/04 06:36:10;;;;;;;9.70;8.70;;;10.50;99.90;;;;;;5079147;28;20207;-67
2022/11/04 06:38:37;;;;;;;10.63;9.40;;;10.50;99.90;;;;;;5087277;28;20211;-67
2022/11/04 06:41:05;;;;;;;12.23;9.73;;;10.60;99.90;;;;;;5086183;28;20665;-67
2022/11/04 06:43:32;;;;;;;10.73;8.93;;;10.50;99.90;;;;;;5087214;28;20205;-67
2022/11/04 06:46:01;;;;;;;13.37;9.80;;;10.60;99.90;;;;;;5088837;28;20199;-66
2022/11/04 06:48:30;;;;;;;11.03;9.53;;;10.50;99.90;;;;;;5091300;28;20238;-67
2022/11/04 06:50:58;;;;;;;9.80;8.80;;;10.50;99.90;;;;;;5090538;28;20219;-67
2022/11/04 06:53:24;;;;;;;10.40;9.27;;;10.50;99.90;;;;;;5091357;28;20256;-67
2022/11/04 06:55:51;;;;;;;10.00;8.83;;;10.50;99.90;;;;;;5088609;28;20207;-66
2022/11/04 06:58:18;;;;;;;10.90;9.80;;;10.50;99.90;;;;;;5070657;28;20215;-67
2022/11/04 07:00:51;;;;;;;11.43;9.73;;;10.60;99.90;;;;;;5070261;28;20588;-67
2022/11/04 07:03:17;;;;;;;13.13;9.17;;;10.60;99.90;;;;;;5070447;28;20231;-67
2022/11/04 07:05:45;;;;;;;11.03;9.57;;;10.60;99.90;;;;;;5070217;28;20297;-66
2022/11/04 07:08:12;;;;;;;12.93;10.27;;;10.60;99.90;;;;;;5069914;28;20827;-67
2022/11/04 07:10:39;;;;;;;10.93;9.77;;;10.60;99.90;;;;;;5070409;28;20214;-66
2022/11/04 07:13:06;;;;;;;11.03;9.90;;;10.60;99.90;;;;;;5070309;28;20210;-67
2022/11/04 07:15:33;;;;;;;15.53;10.10;;;10.60;99.90;;;;;;5070447;28;20207;-67
2022/11/04 07:18:00;;;;;;;10.73;9.67;;;10.60;99.90;;;;;;5070284;28;20199;-67
2022/11/04 07:20:27;;;;;;;13.43;9.97;;;10.60;99.90;;;;;;5070053;28;20211;-67
2022/11/04 07:22:56;;;;;;;13.07;10.67;;;10.50;99.90;;;;;;5070032;28;20218;-67
2022/11/04 07:25:23;;;;;;;16.07;12.03;;;10.50;99.90;;;;;;5070325;28;20295;-67
2022/11/04 07:27:49;;;;;;;14.53;12.87;;;10.50;99.90;;;;;;5076587;28;20231;-67
2022/11/04 07:30:19;;;;;;;15.80;12.70;;;10.50;99.90;;;;;;5070074;28;20207;-67
2022/11/04 07:32:45;;;;;;;13.73;11.47;;;10.60;99.90;;;;;;5084637;28;20203;-67
2022/11/04 07:35:13;;;;;;;12.30;11.10;;;10.70;99.90;;;;;;5090104;28;20551;-66
2022/11/04 07:37:39;;;;;;;12.77;10.73;;;10.70;99.90;;;;;;5090137;28;20210;-66
2022/11/04 07:40:09;;;;;;;12.03;9.80;;;10.80;99.90;;;;;;5090346;28;20211;-66
2022/11/04 07:42:35;;;;;;;10.77;9.67;;;10.80;99.90;;;;;;5089732;28;20218;-67
2022/11/04 07:45:02;;;;;;;12.47;10.13;;;10.90;99.90;;;;;;5088346;28;20203;-66
2022/11/04 07:47:30;;;;;;;13.67;10.33;;;10.90;99.90;;;;;;5089953;28;20230;-66
2022/11/04 07:49:56;;;;;;;10.43;9.33;;;10.90;99.90;;;;;;5089211;28;20273;-66
2022/11/04 07:52:23;;;;;;;17.37;13.70;;;10.90;99.90;;;;;;5088358;28;20195;-66
2022/11/04 07:54:50;;;;;;;12.87;10.63;;;10.90;99.90;;;;;;5071440;28;20219;-67
2022/11/04 07:57:18;;;;;;;13.47;11.87;;;10.90;99.90;;;;;;5070857;28;20207;-67
2022/11/04 07:59:45;;;;;;;13.53;11.10;;;10.90;99.90;;;;;;5069477;28;20204;-67
2022/11/04 08:02:12;;;;;;;11.97;10.83;;;10.90;99.90;;;;;;5069032;28;20208;-67
2022/11/04 08:04:38;;;;;;;11.40;10.20;;;10.80;99.90;;;;;;5069081;28;20199;-67
2022/11/04 08:07:08;;;;;;;10.50;9.40;;;10.80;99.90;;;;;;5069238;28;20214;-67
2022/11/04 08:09:36;;;;;;;12.23;10.20;;;10.80;99.90;;;;;;5069341;28;20203;-67
2022/11/04 08:12:03;;;;;;;12.70;10.23;;;10.80;99.90;;;;;;5069312;28;20207;-66
2022/11/04 08:14:31;;;;;;;13.07;10.00;;;10.80;99.90;;;;;;5069568;28;20566;-67
2022/11/04 08:16:58;;;;;;;12.93;10.50;;;10.80;99.90;;;;;;5069067;28;20203;-67
2022/11/04 08:19:26;;;;;;;14.70;11.13;;;10.80;99.90;;;;;;5069226;28;20967;-67
2022/11/04 08:21:52;;;;;;;13.87;10.67;;;10.80;99.90;;;;;;5068730;28;20636;-67
2022/11/04 08:24:19;;;;;;;11.57;10.37;;;10.80;99.90;;;;;;5069111;28;20211;-67
2022/11/04 08:26:46;;;;;;;16.43;14.50;;;10.80;99.90;;;;;;5079105;28;20236;-66
2022/11/04 08:29:13;;;;;;;12.80;9.80;;;10.90;99.90;;;;;;5089268;28;20253;-69
2022/11/04 08:31:41;;;;;;;11.67;9.57;;;10.80;99.90;;;;;;5081787;28;20199;-66
2022/11/04 08:34:08;;;;;;;10.10;9.10;;;10.90;99.90;;;;;;5068955;28;20208;-67
2022/11/04 08:36:37;;;;;;;10.57;9.20;;;10.90;99.90;;;;;;5068679;28;21049;-67
2022/11/04 08:39:05;;;;;;;10.67;8.80;;;10.90;99.90;;;;;;5068779;28;20242;-66
2022/11/04 08:41:33;;;;;;;11.07;9.27;;;10.80;99.90;;;;;;5069021;28;20281;-66
2022/11/04 08:44:02;;;;;;;11.03;9.03;;;10.80;99.90;;;;;;5074140;28;20199;-67
2022/11/04 08:46:35;;;;;;;10.53;8.90;;;10.80;99.90;;;;;;5078996;28;20203;-67
2022/11/04 08:49:03;;;;;;;11.97;9.17;;;10.80;99.90;;;;;;5076077;28;20214;-67
2022/11/04 08:51:32;;;;;;;11.30;9.20;;;10.80;99.90;;;;;;5076315;28;20223;-67
2022/11/04 08:53:59;;;;;;;10.60;9.20;;;10.90;99.90;;;;;;5067844;28;20694;-67
2022/11/04 08:56:28;;;;;;;14.63;9.07;;;10.80;99.90;;;;;;5076384;28;20207;-67
2022/11/04 08:58:57;;;;;;;10.43;9.30;;;10.80;99.90;;;;;;5076994;28;20214;-66
2022/11/04 09:01:24;;;;;;;10.97;9.07;;;10.90;99.90;;;;;;5078536;28;20203;-67
2022/11/04 09:03:52;;;;;;;10.43;9.23;;;10.90;99.90;;;;;;5078173;28;20223;-67
2022/11/04 09:06:22;;;;;;;11.53;9.73;;;10.90;99.90;;;;;;5077030;28;20199;-67
2022/11/04 09:08:49;;;;;;;10.30;8.90;;;10.90;99.90;;;;;;5073646;28;20214;-67
2022/11/04 09:11:17;;;;;;;9.50;8.53;;;11.00;99.90;;;;;;5078905;28;20682;-67
2022/11/04 09:13:44;;;;;;;9.60;8.50;;;10.90;99.90;;;;;;5075910;28;20686;-66
2022/11/04 09:16:12;;;;;;;9.37;8.43;;;11.00;99.90;;;;;;5075877;28;20196;-67
2022/11/04 09:18:39;;;;;;;9.93;9.03;;;11.00;99.90;;;;;;5067213;28;20697;-67
2022/11/04 09:21:08;;;;;;;10.13;8.83;;;11.00;99.90;;;;;;5067657;28;20211;-67
2022/11/04 09:23:36;;;;;;;9.13;8.23;;;11.00;99.90;;;;;;5067850;28;20206;-66
2022/11/04 09:26:05;;;;;;;11.87;9.67;;;11.00;99.90;;;;;;5083983;28;20204;-66
2022/11/04 09:28:32;;;;;;;18.07;15.80;;;11.00;99.90;;;;;;5070143;28;20230;-66
2022/11/04 09:30:59;;;;;;;13.93;9.33;;;10.90;99.90;;;;;;5076594;28;20195;-67
2022/11/04 09:33:25;;;;;;;10.90;9.07;;;10.90;99.90;;;;;;5083225;28;20207;-67
2022/11/04 09:35:56;;;;;;;13.73;9.80;;;10.90;99.90;;;;;;5081234;28;20242;-66
2022/11/04 09:38:23;;;;;;;10.47;9.53;;;10.90;99.90;;;;;;5081340;28;20208;-66
2022/11/04 09:40:52;;;;;;;13.30;9.80;;;11.00;99.90;;;;;;5072433;28;20658;-66
2022/11/04 09:43:31;;;;;;;12.23;9.10;;;11.00;99.90;;;;;;5079200;28;20596;-66
2022/11/04 09:45:59;;;;;;;12.77;9.73;;;10.90;99.90;;;;;;5083025;28;20203;-66
2022/11/04 09:48:32;;;;;;;9.77;8.70;;;10.90;99.90;;;;;;5081229;28;20254;-66
2022/11/04 09:51:02;;;;;;;10.93;8.63;;;10.90;99.90;;;;;;5072617;28;20254;-66
2022/11/04 09:53:37;;;;;;;10.63;8.97;;;10.90;99.90;;;;;;5078525;28;20202;-66
2022/11/04 09:56:11;;;;;;;11.13;9.60;;;10.90;99.90;;;;;;5074132;28;20657;-66
2022/11/04 09:58:39;;;;;;;9.80;8.70;;;10.90;99.90;;;;;;5067427;28;20191;-66
2022/11/04 10:01:15;;;;;;;10.33;8.77;;;10.90;99.90;;;;;;5074123;28;20302;-66
2022/11/04 10:03:57;;;;;;;10.07;8.83;;;10.90;99.90;;;;;;5083998;28;20234;-67
2022/11/04 10:06:32;;;;;;;10.57;9.07;;;10.90;99.90;;;;;;5077254;28;20196;-67
2022/11/04 10:09:13;;;;;;;9.63;8.57;;;10.90;99.90;;;;;;5072440;28;20218;-67
2022/11/04 10:11:49;;;;;;;9.43;8.40;;;10.90;99.90;;;;;;5074163;28;20681;-67
2022/11/04 10:14:34;;;;;;;8.60;7.63;;;10.90;99.90;;;;;;5087567;28;20198;-66
2022/11/04 10:17:09;;;;;;;8.30;7.60;;;10.90;99.90;;;;;;5087475;28;20191;-66
2022/11/04 10:19:47;;;;;;;7.90;7.20;;;10.90;99.90;;;;;;5088279;28;20201;-66
2022/11/04 10:22:23;;;;;;;6.93;6.43;;;10.90;99.90;;;;;;5074425;28;20679;-66
2022/11/04 10:24:58;;;;;;;7.47;6.70;;;10.90;99.90;;;;;;5070777;28;20194;-65
2022/11/04 10:27:29;;;;;;;7.63;6.83;;;10.90;99.90;;;;;;5086812;28;20209;-66
2022/11/04 10:30:00;;;;;;;7.43;6.73;;;10.90;99.90;;;;;;5075719;28;20840;-66
2022/11/04 10:32:33;;;;;;;7.60;6.90;;;10.90;99.90;;;;;;5070828;28;20200;-65
2022/11/04 10:35:05;;;;;;;7.40;6.70;;;11.00;99.90;;;;;;5070872;28;20191;-65
2022/11/04 10:37:34;;;;;;;7.17;6.47;;;11.00;99.90;;;;;;5071218;28;20198;-65
2022/11/04 10:40:14;;;;;;;7.50;6.90;;;10.90;99.90;;;;;;5070430;28;20203;-65
2022/11/04 10:42:42;;;;;;;7.27;6.23;;;11.00;99.90;;;;;;5068853;28;20215;-65
2022/11/04 10:45:11;;;;;;;7.20;6.60;;;11.00;99.90;;;;;;5069530;28;20214;-65
2022/11/04 10:47:46;;;;;;;7.10;6.60;;;11.00;99.90;;;;;;5068614;28;20669;-65
2022/11/04 10:50:25;;;;;;;7.60;6.90;;;11.00;99.90;;;;;;5069117;28;20234;-65
2022/11/04 10:52:56;;;;;;;7.23;6.63;;;11.00;99.90;;;;;;5075639;28;20320;-65
2022/11/04 10:55:35;;;;;;;6.53;5.97;;;11.00;99.90;;;;;;5088925;28;20222;-65
2022/11/04 10:58:03;;;;;;;6.80;6.37;;;11.00;99.90;;;;;;5071071;28;20195;-65
2022/11/04 11:00:36;;;;;;;6.87;6.30;;;11.00;99.90;;;;;;5068378;28;20302;-65
2022/11/04 11:03:02;;;;;;;6.83;6.10;;;11.00;99.90;;;;;;5068314;28;20239;-65
2022/11/04 11:05:30;;;;;;;6.80;6.20;;;11.00;99.90;;;;;;5068251;28;20208;-65
2022/11/04 11:07:58;;;;;;;6.70;6.20;;;11.00;99.90;;;;;;5068240;28;20207;-65
2022/11/04 11:10:26;;;;;;;6.83;6.23;;;11.00;99.90;;;;;;5068434;28;20233;-66
2022/11/04 11:13:00;;;;;;;7.37;6.63;;;11.00;99.90;;;;;;5087470;28;20222;-66
2022/11/04 11:15:34;;;;;;;7.00;6.30;;;11.00;99.90;;;;;;5088633;28;20290;-66
2022/11/04 11:18:15;;;;;;;6.97;6.37;;;11.00;99.90;;;;;;5088305;28;20195;-68
2022/11/04 11:20:47;;;;;;;6.80;6.20;;;11.00;99.90;;;;;;5084542;28;20208;-66
2022/11/04 11:23:39;;;;;;;8.93;7.90;;;11.00;99.90;;;;;;5069023;28;20199;-66
2022/11/04 11:26:08;;;;;;;7.10;6.50;;;11.00;99.90;;;;;;5087963;28;20214;-66
2022/11/04 11:28:38;;;;;;;6.93;6.43;;;11.00;99.90;;;;;;5088103;28;20596;-66
2022/11/04 11:31:13;;;;;;;6.83;6.33;;;11.00;99.90;;;;;;5069593;28;20199;-66
2022/11/04 11:33:52;;;;;;;6.87;6.37;;;11.00;99.90;;;;;;5078121;28;20199;-66
2022/11/04 11:36:23;;;;;;;7.30;6.63;;;10.90;99.90;;;;;;5067908;28;20542;-65
2022/11/04 11:39:05;;;;;;;7.67;6.87;;;10.90;99.90;;;;;;5067346;28;20211;-66
2022/11/04 11:41:34;;;;;;;6.30;5.80;;;10.90;99.90;;;;;;5067060;28;20203;-66
2022/11/04 11:44:05;;;;;;;6.20;5.80;;;11.00;99.90;;;;;;5067941;28;20204;-66
2022/11/04 11:46:36;;;;;;;6.60;6.10;;;11.00;99.90;;;;;;5067483;28;20203;-66
2022/11/04 11:49:05;;;;;;;6.90;6.30;;;11.00;99.90;;;;;;5071273;28;20770;-65
2022/11/04 11:51:34;;;;;;;7.53;6.40;;;11.00;99.90;;;;;;5082273;28;20226;-66
2022/11/04 11:54:21;;;;;;;5.87;5.30;;;11.10;99.90;;;;;;5086338;28;20210;-66
2022/11/04 11:56:51;;;;;;;6.70;6.20;;;11.00;99.90;;;;;;5077834;28;20713;-66
2022/11/04 11:59:26;;;;;;;7.17;6.67;;;11.00;99.90;;;;;;5088101;28;20210;-66
2022/11/04 12:02:13;;;;;;;6.83;6.20;;;11.10;99.90;;;;;;5088110;28;20309;-66
2022/11/04 12:04:40;;;;;;;7.73;6.27;;;11.10;99.90;;;;;;5047918;28;20196;-66
2022/11/04 12:07:13;;;;;;;6.27;5.70;;;11.10;99.90;;;;;;5039662;28;20201;-66
2022/11/04 12:09:47;;;;;;;6.30;5.80;;;11.20;99.90;;;;;;5027838;28;20220;-66
2022/11/04 12:12:23;;;;;;;8.27;7.47;;;11.20;99.90;;;;;;5027881;28;20251;-66
2022/11/04 12:15:05;;;;;;;7.63;7.03;;;11.10;99.90;;;;;;5027735;28;20224;-66
2022/11/04 12:17:47;;;;;;;6.87;6.27;;;11.10;99.90;;;;;;5027636;28;20193;-66
2022/11/04 12:20:36;;;;;;;7.83;7.00;;;11.10;99.90;;;;;;5027141;28;20229;-66
2022/11/04 12:23:11;;;;;;;8.00;7.20;;;11.10;99.90;;;;;;5027561;28;20279;-66
2022/11/04 12:25:48;;;;;;;9.17;6.87;;;11.10;99.90;;;;;;5028015;28;20211;-66
2022/11/04 12:28:25;;;;;;;9.23;7.10;;;11.10;99.90;;;;;;5031666;28;20208;-66
2022/11/04 12:31:05;;;;;;;9.63;6.57;;;11.10;99.90;;;;;;5027152;28;20200;-66
2022/11/04 12:33:39;;;;;;;8.33;6.40;;;11.10;99.90;;;;;;5027277;28;20711;-66
2022/11/04 12:36:21;;;;;;;7.40;6.70;;;11.10;99.90;;;;;;5045104;28;20211;-66
2022/11/04 12:39:14;;;;;;;7.33;6.70;;;11.10;99.90;;;;;;5047673;28;20235;-66
2022/11/04 12:41:52;;;;;;;6.97;6.37;;;11.10;99.90;;;;;;5047056;28;20224;-65
2022/11/04 12:44:27;;;;;;;5.90;5.50;;;11.10;99.90;;;;;;5031497;28;20193;-66
2022/11/04 12:47:00;;;;;;;5.50;5.10;;;11.10;99.90;;;;;;5027615;28;20223;-66
2022/11/04 12:50:15;;;;;;;6.77;6.17;;;11.10;99.90;;;;;;5026947;28;20244;-66
2022/11/04 12:53:13;;;;;;;6.93;6.33;;;11.10;99.90;;;;;;4991313;28;20204;-66
2022/11/04 12:55:49;;;;;;;7.43;6.30;;;11.10;99.90;;;;;;5026930;28;20216;-66
2022/11/04 12:58:31;;;;;;;6.77;6.20;;;11.10;99.90;;;;;;5027031;28;20200;-66
2022/11/04 13:01:03;;;;;;;7.47;6.73;;;11.10;99.90;;;;;;5026535;28;20201;-66
2022/11/04 13:03:36;;;;;;;6.73;6.13;;;11.10;99.90;;;;;;5051175;28;20800;-66
2022/11/04 13:06:10;;;;;;;7.23;6.63;;;11.10;99.90;;;;;;5066583;28;20582;-66
2022/11/04 13:08:41;;;;;;;7.03;6.53;;;11.10;99.90;;;;;;5066264;28;20226;-66
2022/11/04 13:11:22;;;;;;;6.70;6.20;;;11.10;99.90;;;;;;5066594;28;20200;-66
2022/11/04 13:13:56;;;;;;;7.27;6.60;;;11.10;99.90;;;;;;5066417;28;20196;-66
2022/11/04 13:16:23;;;;;;;8.73;7.30;;;11.00;99.90;;;;;;5066071;28;20195;-66
2022/11/04 13:18:51;;;;;;;8.57;6.73;;;11.00;99.90;;;;;;5065953;28;20227;-66
2022/11/04 13:21:23;;;;;;;7.67;6.83;;;11.10;99.90;;;;;;5066460;28;20204;-66
2022/11/04 13:23:56;;;;;;;6.73;6.23;;;11.00;99.90;;;;;;5066751;28;20191;-66
2022/11/04 13:26:23;;;;;;;7.73;7.03;;;11.00;99.90;;;;;;5073179;28;20884;-65
2022/11/04 13:28:59;;;;;;;8.57;7.73;;;11.10;99.90;;;;;;5084439;28;20277;-66
2022/11/04 13:31:34;;;;;;;9.37;8.50;;;11.00;99.90;;;;;;5066164;28;20243;-66